createdAt,value
2023-04-22T00:00:14.889Z,12.15
2023-04-22T00:03:01.918Z,12.13
2023-04-22T00:05:47.683Z,12.08
2023-04-22T00:08:33.031Z,12.02
2023-04-22T00:11:18.577Z,12.02
2023-04-22T00:14:04.387Z,11.93
2023-04-22T00:16:52.791Z,11.92
2023-04-22T00:19:38.558Z,11.96
2023-04-22T00:22:24.512Z,11.95
2023-04-22T00:25:10.276Z,11.87
2023-04-22T00:27:55.781Z,11.94
2023-04-22T00:30:41.230Z,11.87
2023-04-22T00:33:26.805Z,11.84
2023-04-22T00:36:12.483Z,11.76
2023-04-22T00:38:57.852Z,11.77
2023-04-22T00:41:43.634Z,11.78
2023-04-22T00:44:29.836Z,11.86
2023-04-22T00:47:16.797Z,11.85
2023-04-22T00:50:03.405Z,11.84
2023-04-22T00:52:48.887Z,11.81
2023-04-22T00:55:34.752Z,11.85
2023-04-22T00:58:22.630Z,11.86
2023-04-22T01:01:08.062Z,11.86
2023-04-22T01:03:53.863Z,11.80
2023-04-22T01:06:41.022Z,11.71
2023-04-22T01:09:26.429Z,11.59
2023-04-22T01:12:12.222Z,11.58
2023-04-22T01:14:57.593Z,11.57
2023-04-22T01:17:43.063Z,11.52
2023-04-22T01:20:31.822Z,11.57
2023-04-22T01:23:22.878Z,11.55
2023-04-22T01:26:08.388Z,11.56
2023-04-22T01:28:53.962Z,11.57
2023-04-22T01:31:39.597Z,11.53
2023-04-22T01:34:25.043Z,11.54
2023-04-22T01:37:10.621Z,11.51
2023-04-22T01:39:59.027Z,11.35
2023-04-22T01:42:44.709Z,11.24
2023-04-22T01:45:30.144Z,11.27
2023-04-22T01:48:15.669Z,11.24
2023-04-22T01:51:01.578Z,11.26
2023-04-22T01:53:50.363Z,11.26
2023-04-22T01:56:36.729Z,11.29
2023-04-22T01:59:22.116Z,11.28
2023-04-22T02:02:07.644Z,11.23
2023-04-22T02:04:53.287Z,11.13
2023-04-22T02:07:39.030Z,11.11
2023-04-22T02:10:24.781Z,11.11
2023-04-22T02:13:10.118Z,11.07
2023-04-22T02:15:55.427Z,10.91
2023-04-22T02:18:40.911Z,10.91
2023-04-22T02:21:29.860Z,10.75
2023-04-22T02:24:15.204Z,10.69
2023-04-22T02:27:01.339Z,10.67
2023-04-22T02:29:47.178Z,10.60
2023-04-22T02:32:33.092Z,10.54
2023-04-22T02:35:18.338Z,10.50
2023-04-22T02:38:04.089Z,10.42
2023-04-22T02:40:49.681Z,10.34
2023-04-22T02:43:34.867Z,10.18
2023-04-22T02:46:20.719Z,10.21
2023-04-22T02:49:06.111Z,10.20
2023-04-22T02:51:51.633Z,10.31
2023-04-22T02:54:37.016Z,10.20
2023-04-22T02:57:22.687Z,10.08
2023-04-22T03:00:08.659Z,9.99
2023-04-22T03:02:53.954Z,9.86
2023-04-22T03:05:39.704Z,9.79
2023-04-22T03:08:25.724Z,9.85
2023-04-22T03:11:11.308Z,9.92
2023-04-22T03:13:56.713Z,9.88
2023-04-22T03:16:42.160Z,9.84
2023-04-22T03:19:27.664Z,9.76
2023-04-22T03:22:13.438Z,9.68
2023-04-22T03:24:59.055Z,9.72
2023-04-22T03:27:44.556Z,9.79
2023-04-22T03:30:29.855Z,9.77
2023-04-22T03:33:15.629Z,9.77
2023-04-22T03:36:01.213Z,9.74
2023-04-22T03:38:46.762Z,9.72
2023-04-22T03:41:32.167Z,9.70
2023-04-22T03:44:17.663Z,9.66
2023-04-22T03:47:03.306Z,9.70
2023-04-22T03:49:48.934Z,9.76
2023-04-22T03:52:34.216Z,9.76
2023-04-22T03:55:19.791Z,9.75
2023-04-22T03:58:05.056Z,9.84
2023-04-22T04:00:50.503Z,9.84
2023-04-22T04:03:36.203Z,9.89
2023-04-22T04:06:22.133Z,10.03
2023-04-22T04:09:07.689Z,10.05
2023-04-22T04:11:53.389Z,10.03
2023-04-22T04:14:39.054Z,10.02
2023-04-22T04:17:25.888Z,9.99
2023-04-22T04:20:12.226Z,9.99
2023-04-22T04:22:57.944Z,10.08
2023-04-22T04:25:43.664Z,10.09
2023-04-22T04:28:34.391Z,10.10
2023-04-22T04:31:19.899Z,10.14
2023-04-22T04:34:05.522Z,10.17
2023-04-22T04:36:50.841Z,10.19
2023-04-22T04:39:36.424Z,10.25
2023-04-22T04:42:24.315Z,10.26
2023-04-22T04:45:10.282Z,10.37
2023-04-22T04:47:55.862Z,10.40
2023-04-22T04:50:42.552Z,10.44
2023-04-22T04:53:27.813Z,10.44
2023-04-22T04:56:13.487Z,10.50
2023-04-22T04:58:58.767Z,10.53
2023-04-22T05:01:45.286Z,10.61
2023-04-22T05:04:30.967Z,10.65
2023-04-22T05:07:16.726Z,10.72
2023-04-22T05:10:03.183Z,10.79
2023-04-22T05:12:48.917Z,10.89
2023-04-22T05:15:57.872Z,11.07
2023-04-22T05:18:43.372Z,11.18
2023-04-22T05:21:28.627Z,11.32
2023-04-22T05:24:14.153Z,11.44
2023-04-22T05:27:00.400Z,11.44
2023-04-22T05:29:45.691Z,11.54
2023-04-22T05:32:31.144Z,11.58
2023-04-22T05:35:16.706Z,11.62
2023-04-22T05:38:03.075Z,11.92
2023-04-22T05:40:48.426Z,12.79
2023-04-22T05:43:34.127Z,13.47
2023-04-22T05:46:19.839Z,14.27
2023-04-22T05:49:05.654Z,14.99
2023-04-22T05:51:51.325Z,15.46
2023-04-22T05:54:37.204Z,15.85
2023-04-22T05:57:22.600Z,15.94
2023-04-22T06:00:09.749Z,16.31
2023-04-22T06:02:55.634Z,16.45
2023-04-22T06:05:42.189Z,16.57
2023-04-22T06:08:31.587Z,17.50
2023-04-22T06:11:16.959Z,17.97
2023-04-22T06:14:02.608Z,18.82
2023-04-22T06:16:50.218Z,18.69
2023-04-22T06:19:35.679Z,19.22
2023-04-22T06:22:21.233Z,19.52
2023-04-22T06:25:06.748Z,19.56
2023-04-22T06:27:52.137Z,19.90
2023-04-22T06:30:37.796Z,19.98
2023-04-22T06:33:23.293Z,20.02
2023-04-22T06:36:08.909Z,20.17
2023-04-22T06:38:54.852Z,21.11
2023-04-22T06:41:41.966Z,20.56
2023-04-22T06:44:28.996Z,20.75
2023-04-22T06:47:14.462Z,20.84
2023-04-22T06:50:00.010Z,21.33
2023-04-22T06:52:45.799Z,21.21
2023-04-22T06:55:31.337Z,21.11
2023-04-22T06:58:16.930Z,21.37
2023-04-22T07:01:02.587Z,21.56
2023-04-22T07:03:48.304Z,21.61
2023-04-22T07:06:33.761Z,21.81
2023-04-22T07:09:19.433Z,22.09
2023-04-22T07:12:05.329Z,22.50
2023-04-22T07:14:50.996Z,22.65
2023-04-22T07:17:36.641Z,22.40
2023-04-22T07:20:22.396Z,23.02
2023-04-22T07:23:07.877Z,23.04
2023-04-22T07:25:53.470Z,23.36
2023-04-22T07:28:39.128Z,23.35
2023-04-22T07:31:24.368Z,23.98
2023-04-22T07:34:10.751Z,24.34
2023-04-22T07:36:56.409Z,23.95
2023-04-22T07:39:42.280Z,24.33
2023-04-22T07:42:28.593Z,24.53
2023-04-22T07:45:14.102Z,24.85
2023-04-22T07:47:59.609Z,25.20
2023-04-22T07:50:45.367Z,25.99
2023-04-22T07:53:30.763Z,25.37
2023-04-22T07:56:16.036Z,24.78
2023-04-22T07:59:01.290Z,25.01
2023-04-22T08:01:46.698Z,24.73
2023-04-22T08:04:32.771Z,24.83
2023-04-22T08:07:32.575Z,24.91
2023-04-22T08:10:18.656Z,25.23
2023-04-22T08:13:04.153Z,24.82
2023-04-22T08:15:51.807Z,25.08
2023-04-22T08:18:37.201Z,25.37
2023-04-22T08:21:22.407Z,24.81
2023-04-22T08:24:07.864Z,25.19
2023-04-22T08:26:53.148Z,25.92
2023-04-22T08:29:38.868Z,25.23
2023-04-22T08:32:26.300Z,24.54
2023-04-22T08:35:12.224Z,23.64
2023-04-22T08:37:57.922Z,23.05
2023-04-22T08:40:43.228Z,22.75
2023-04-22T08:43:28.634Z,22.87
2023-04-22T08:46:15.624Z,23.05
2023-04-22T08:49:03.895Z,23.39
2023-04-22T08:51:49.574Z,23.92
2023-04-22T08:54:37.323Z,26.38
2023-04-22T08:57:23.555Z,27.04
2023-04-22T09:00:09.858Z,28.11
2023-04-22T09:02:56.026Z,28.30
2023-04-22T09:05:42.871Z,28.42
2023-04-22T09:08:28.550Z,29.22
2023-04-22T09:11:14.312Z,28.82
2023-04-22T09:13:59.552Z,29.20
2023-04-22T09:16:48.679Z,29.74
2023-04-22T09:19:34.063Z,29.98
2023-04-22T09:22:19.547Z,30.07
2023-04-22T09:25:05.224Z,29.24
2023-04-22T09:27:56.321Z,28.83
2023-04-22T09:30:45.708Z,29.57
2023-04-22T09:33:31.663Z,29.97
2023-04-22T09:36:17.055Z,30.24
2023-04-22T09:39:05.008Z,29.51
2023-04-22T09:41:54.770Z,30.42
2023-04-22T09:44:40.631Z,31.63
2023-04-22T09:47:26.470Z,32.35
2023-04-22T09:50:12.128Z,32.17
2023-04-22T09:53:04.146Z,32.56
2023-04-22T09:55:51.733Z,33.33
2023-04-22T09:58:40.488Z,33.57
2023-04-22T10:01:36.003Z,34.08
2023-04-22T10:04:23.406Z,33.69
2023-04-22T10:07:08.892Z,34.31
2023-04-22T10:09:54.194Z,33.61
2023-04-22T10:12:39.696Z,33.27
2023-04-22T10:15:27.007Z,32.94
2023-04-22T10:18:16.614Z,33.53
2023-04-22T10:21:02.663Z,34.72
2023-04-22T10:23:48.849Z,35.88
2023-04-22T10:26:49.327Z,35.62
2023-04-22T10:29:40.402Z,35.67
2023-04-22T10:32:26.530Z,35.50
2023-04-22T10:35:14.421Z,35.93
2023-04-22T10:38:00.032Z,35.42
2023-04-22T10:41:04.069Z,36.01
2023-04-22T10:43:58.484Z,35.00
2023-04-22T10:46:52.992Z,35.22
2023-04-22T10:49:38.810Z,35.97
2023-04-22T10:52:29.145Z,36.76
2023-04-22T10:55:14.853Z,36.94
2023-04-22T10:58:00.510Z,37.63
2023-04-22T11:03:37.815Z,37.17
2023-04-22T11:06:27.158Z,36.66
2023-04-22T11:09:13.035Z,37.11
2023-04-22T11:12:35.686Z,37.70
2023-04-22T11:15:22.702Z,37.68
2023-04-22T11:18:11.019Z,38.59
2023-04-22T11:20:56.822Z,38.59
2023-04-22T11:23:56.190Z,37.72
2023-04-22T11:26:42.214Z,37.31
2023-04-22T11:29:27.564Z,37.60
2023-04-22T11:32:13.884Z,37.90
2023-04-22T11:35:04.466Z,38.11
2023-04-22T11:37:58.293Z,36.67
2023-04-22T11:40:46.997Z,37.77
2023-04-22T11:43:33.288Z,37.57
2023-04-22T11:46:29.135Z,37.10
2023-04-22T11:49:15.009Z,35.92
2023-04-22T11:52:00.701Z,35.41
2023-04-22T11:54:46.407Z,35.50
2023-04-22T11:57:36.171Z,35.29
2023-04-22T12:00:22.901Z,34.92
2023-04-22T12:03:20.335Z,34.04
2023-04-22T12:06:06.035Z,34.14
2023-04-22T12:08:51.369Z,33.91
2023-04-22T12:11:38.752Z,34.76
2023-04-22T12:14:34.707Z,34.28
2023-04-22T12:17:24.394Z,34.95
2023-04-22T12:20:15.847Z,34.47
2023-04-22T12:23:01.329Z,34.82
2023-04-22T12:25:46.967Z,35.08
2023-04-22T12:28:32.113Z,35.71
2023-04-22T12:31:18.099Z,34.49
2023-04-22T12:34:04.179Z,34.82
2023-04-22T12:36:50.451Z,35.14
2023-04-22T12:39:37.772Z,35.43
2023-04-22T12:42:23.305Z,35.31
2023-04-22T12:45:09.452Z,34.95
2023-04-22T12:47:55.397Z,35.29
2023-04-22T12:50:40.885Z,34.56
2023-04-22T12:53:27.709Z,34.95
2023-04-22T12:56:13.356Z,34.96
2023-04-22T12:59:03.054Z,35.55
2023-04-22T13:01:48.508Z,34.83
2023-04-22T13:04:34.439Z,34.44
2023-04-22T13:07:19.851Z,33.81
2023-04-22T13:10:06.904Z,33.74
2023-04-22T13:12:53.122Z,33.65
2023-04-22T13:15:38.839Z,33.66
2023-04-22T13:18:24.870Z,33.96
2023-04-22T13:21:13.808Z,32.72
2023-04-22T13:23:59.531Z,33.02
2023-04-22T13:26:45.034Z,32.09
2023-04-22T13:29:30.798Z,32.07
2023-04-22T13:32:16.147Z,33.04
2023-04-22T13:35:03.033Z,32.36
2023-04-22T13:37:49.723Z,32.11
2023-04-22T13:40:35.285Z,31.95
2023-04-22T13:43:20.942Z,31.53
2023-04-22T13:46:06.584Z,31.08
2023-04-22T13:48:52.966Z,30.30
2023-04-22T13:51:39.509Z,30.82
2023-04-22T13:54:26.049Z,30.30
2023-04-22T13:57:12.120Z,29.84
2023-04-22T13:59:57.591Z,29.70
2023-04-22T14:02:44.310Z,29.10
2023-04-22T14:05:29.853Z,29.53
2023-04-22T14:08:15.585Z,29.13
2023-04-22T14:11:03.229Z,29.16
2023-04-22T14:13:49.105Z,28.98
2023-04-22T14:16:34.563Z,28.54
2023-04-22T14:19:21.165Z,27.94
2023-04-22T14:22:06.830Z,27.62
2023-04-22T14:24:52.662Z,26.91
2023-04-22T14:27:38.347Z,26.57
2023-04-22T14:30:24.043Z,26.54
2023-04-22T14:33:09.254Z,26.25
2023-04-22T14:35:55.165Z,26.14
2023-04-22T14:38:41.032Z,26.65
2023-04-22T14:41:26.415Z,27.22
2023-04-22T14:44:12.080Z,27.36
2023-04-22T14:46:57.393Z,27.66
2023-04-22T14:49:42.700Z,27.84
2023-04-22T14:52:28.014Z,28.36
2023-04-22T14:55:22.537Z,28.62
2023-04-22T14:58:09.220Z,28.71
2023-04-22T15:00:54.462Z,29.79
2023-04-22T15:03:40.011Z,30.20
2023-04-22T15:06:27.417Z,30.79
2023-04-22T15:09:12.819Z,30.67
2023-04-22T15:11:59.521Z,29.95
2023-04-22T15:14:45.754Z,29.49
2023-04-22T15:17:31.495Z,29.10
2023-04-22T15:20:16.865Z,28.06
2023-04-22T15:23:03.031Z,28.18
2023-04-22T15:25:48.554Z,27.91
2023-04-22T15:28:33.893Z,27.29
2023-04-22T15:31:20.676Z,26.85
2023-04-22T15:34:06.619Z,26.40
2023-04-22T15:36:51.992Z,25.92
2023-04-22T15:39:37.326Z,25.67
2023-04-22T15:42:22.534Z,25.21
2023-04-22T15:45:08.432Z,24.88
2023-04-22T15:47:54.344Z,24.74
2023-04-22T15:50:40.766Z,24.57
2023-04-22T15:53:26.445Z,24.45
2023-04-22T15:56:12.443Z,24.30
2023-04-22T15:58:57.849Z,24.28
2023-04-22T16:01:45.880Z,24.31
2023-04-22T16:04:32.120Z,24.28
2023-04-22T16:07:18.009Z,24.22
2023-04-22T16:10:03.677Z,24.22
2023-04-22T16:12:49.086Z,24.17
2023-04-22T16:15:34.409Z,24.08
2023-04-22T16:18:19.827Z,23.88
2023-04-22T16:21:05.643Z,23.84
2023-04-22T16:23:50.994Z,23.81
2023-04-22T16:26:36.451Z,23.76
2023-04-22T16:29:21.706Z,23.64
2023-04-22T16:32:07.829Z,23.56
2023-04-22T16:34:53.168Z,23.47
2023-04-22T16:37:38.566Z,23.42
2023-04-22T16:40:24.342Z,23.39
2023-04-22T16:43:10.423Z,23.38
2023-04-22T16:45:56.023Z,23.28
2023-04-22T16:48:41.371Z,23.16
2023-04-22T16:51:27.118Z,23.10
2023-04-22T16:54:12.896Z,23.04
2023-04-22T16:56:58.399Z,22.93
2023-04-22T16:59:43.747Z,22.87
2023-04-22T17:02:29.161Z,22.76
2023-04-22T17:05:14.925Z,22.69
2023-04-22T17:08:00.435Z,22.67
2023-04-22T17:10:48.071Z,22.56
2023-04-22T17:13:33.810Z,22.37
2023-04-22T17:16:19.492Z,22.32
2023-04-22T17:19:05.167Z,22.24
2023-04-22T17:21:50.694Z,22.18
2023-04-22T17:24:36.334Z,22.08
2023-04-22T17:27:22.112Z,21.99
2023-04-22T17:30:07.703Z,21.96
2023-04-22T17:32:53.268Z,21.90
2023-04-22T17:35:38.750Z,21.81
2023-04-22T17:38:24.082Z,21.70
2023-04-22T17:41:09.545Z,21.63
2023-04-22T17:43:54.881Z,21.51
2023-04-22T17:46:41.584Z,21.49
2023-04-22T17:49:27.221Z,21.44
2023-04-22T17:52:12.832Z,21.32
2023-04-22T17:54:59.813Z,21.25
2023-04-22T17:57:45.692Z,21.18
2023-04-22T18:00:32.809Z,21.07
2023-04-22T18:03:20.104Z,21.00
2023-04-22T18:06:06.351Z,20.90
2023-04-22T18:08:51.679Z,20.87
2023-04-22T18:11:37.029Z,20.69
2023-04-22T18:14:22.642Z,20.71
2023-04-22T18:17:07.939Z,20.60
2023-04-22T18:20:02.667Z,20.56
2023-04-22T18:22:52.032Z,20.48
2023-04-22T18:25:37.860Z,20.42
2023-04-22T18:28:23.112Z,20.40
2023-04-22T18:31:08.743Z,20.29
2023-04-22T18:33:54.154Z,20.18
2023-04-22T18:36:40.493Z,20.08
2023-04-22T18:39:25.875Z,20.03
2023-04-22T18:42:11.146Z,19.95
2023-04-22T18:44:56.690Z,19.89
2023-04-22T18:47:43.892Z,19.92
2023-04-22T18:50:29.284Z,19.90
2023-04-22T18:53:14.759Z,19.86
2023-04-22T18:56:01.015Z,19.90
2023-04-22T18:58:46.472Z,19.92
2023-04-22T19:01:31.851Z,19.91
2023-04-22T19:04:17.468Z,19.88
2023-04-22T19:07:03.061Z,19.85
2023-04-22T19:09:48.301Z,19.84
2023-04-22T19:12:33.680Z,19.88
2023-04-22T19:15:21.161Z,19.85
2023-04-22T19:18:06.811Z,19.82
2023-04-22T19:20:52.226Z,19.82
2023-04-22T19:23:38.137Z,19.77
2023-04-22T19:26:23.819Z,19.71
2023-04-22T19:29:09.322Z,19.66
2023-04-22T19:31:55.737Z,19.64
2023-04-22T19:34:43.272Z,19.61
2023-04-22T19:37:29.041Z,19.55
2023-04-22T19:40:16.634Z,19.53
2023-04-22T19:43:04.252Z,19.45
2023-04-22T19:45:49.662Z,19.47
2023-04-22T19:48:35.759Z,19.46
2023-04-22T19:51:21.377Z,19.43
2023-04-22T19:54:08.275Z,19.39
2023-04-22T19:56:54.795Z,19.36
2023-04-22T19:59:40.850Z,19.39
2023-04-22T20:02:28.342Z,19.34
2023-04-22T20:05:14.167Z,19.31
2023-04-22T20:08:00.222Z,19.32
2023-04-22T20:10:46.142Z,19.31
2023-04-22T20:13:32.688Z,19.30
2023-04-22T20:16:23.177Z,19.25
2023-04-22T20:19:09.105Z,19.21
2023-04-22T20:21:56.621Z,19.21
2023-04-22T20:24:42.858Z,19.19
2023-04-22T20:27:32.430Z,19.18
2023-04-22T20:30:18.853Z,19.10
2023-04-22T20:33:04.408Z,19.06
2023-04-22T20:35:50.274Z,19.03
2023-04-22T20:38:38.722Z,19.08
2023-04-22T20:41:25.354Z,19.03
2023-04-22T20:44:11.396Z,18.98
2023-04-22T20:46:58.700Z,18.97
2023-04-22T20:49:44.616Z,19.00
2023-04-22T20:52:30.170Z,18.96
2023-04-22T20:55:16.912Z,18.91
2023-04-22T20:58:03.469Z,18.88
2023-04-22T21:00:49.002Z,18.78
2023-04-22T21:03:36.363Z,18.77
2023-04-22T21:06:22.199Z,18.70
2023-04-22T21:09:08.514Z,18.62
2023-04-22T21:11:54.523Z,18.64
2023-04-22T21:14:43.175Z,18.67
2023-04-22T21:17:31.081Z,18.62
2023-04-22T21:20:17.944Z,18.57
2023-04-22T21:23:04.320Z,18.55
2023-04-22T21:25:50.210Z,18.52
2023-04-22T21:28:35.715Z,18.51
2023-04-22T21:31:21.838Z,18.43
2023-04-22T21:34:09.622Z,18.45
2023-04-22T21:36:54.862Z,18.47
2023-04-22T21:39:40.465Z,18.41
2023-04-22T21:42:26.189Z,18.38
2023-04-22T21:45:11.591Z,18.35
2023-04-22T21:47:59.188Z,18.32
2023-04-22T21:50:44.493Z,18.21
2023-04-22T21:53:29.906Z,18.16
2023-04-22T21:56:15.917Z,18.00
2023-04-22T21:59:01.364Z,17.96
2023-04-22T22:01:47.076Z,17.96
2023-04-22T22:04:32.584Z,17.94
2023-04-22T22:07:19.286Z,17.98
2023-04-22T22:10:10.566Z,18.00
2023-04-22T22:12:56.226Z,18.07
2023-04-22T22:15:41.732Z,18.04
2023-04-22T22:18:27.434Z,18.01
2023-04-22T22:21:12.814Z,17.95
2023-04-22T22:23:58.333Z,17.89
2023-04-22T22:26:44.336Z,17.91
2023-04-22T22:29:29.728Z,17.89
2023-04-22T22:32:15.176Z,17.87
2023-04-22T22:35:00.403Z,17.88
2023-04-22T22:37:46.028Z,17.87
2023-04-22T22:40:31.436Z,17.83
2023-04-22T22:43:16.741Z,17.83
2023-04-22T22:46:02.118Z,17.69
2023-04-22T22:48:48.171Z,17.67
2023-04-22T22:51:33.668Z,17.66
2023-04-22T22:54:19.104Z,17.59
2023-04-22T22:57:08.121Z,17.54
2023-04-22T22:59:53.747Z,17.50
2023-04-22T23:02:39.532Z,17.40
2023-04-22T23:05:25.221Z,17.36
2023-04-22T23:08:10.622Z,17.23
2023-04-22T23:10:55.966Z,17.22
2023-04-22T23:13:41.663Z,17.15
2023-04-22T23:16:27.265Z,17.16
2023-04-22T23:19:14.253Z,17.14
2023-04-22T23:21:59.605Z,17.18
2023-04-22T23:24:45.648Z,17.15
2023-04-22T23:27:31.233Z,17.15
2023-04-22T23:30:16.864Z,17.15
2023-04-22T23:33:04.106Z,17.08
2023-04-22T23:35:52.007Z,16.98
2023-04-22T23:38:37.679Z,16.91
2023-04-22T23:41:23.053Z,16.97
2023-04-22T23:44:08.419Z,16.96
2023-04-22T23:46:53.966Z,16.95
2023-04-22T23:49:39.336Z,16.94
2023-04-22T23:52:24.642Z,16.93
2023-04-22T23:55:11.380Z,16.94
2023-04-22T23:57:57.792Z,16.95
